sensor_id;sensor_type;location;lat;lon;timestamp;temperature;humidity
11087;DHT22;5597;47.588;9.642;2023-08-06T00:02:13;15.10;99.90
11087;DHT22;5597;47.588;9.642;2023-08-06T00:04:39;15.10;99.90
11087;DHT22;5597;47.588;9.642;2023-08-06T00:07:05;15.10;99.90
11087;DHT22;5597;47.588;9.642;2023-08-06T00:09:30;15.10;99.90
11087;DHT22;5597;47.588;9.642;2023-08-06T00:11:56;15.10;99.90
11087;DHT22;5597;47.588;9.642;2023-08-06T00:14:22;15.10;99.90
11087;DHT22;5597;47.588;9.642;2023-08-06T00:16:47;15.10;99.90
11087;DHT22;5597;47.588;9.642;2023-08-06T00:19:13;15.10;99.90
11087;DHT22;5597;47.588;9.642;2023-08-06T00:21:39;15.10;99.90
11087;DHT22;5597;47.588;9.642;2023-08-06T00:24:04;15.10;99.90
11087;DHT22;5597;47.588;9.642;2023-08-06T00:26:30;15.10;99.90
11087;DHT22;5597;47.588;9.642;2023-08-06T00:28:56;15.10;99.90
11087;DHT22;5597;47.588;9.642;2023-08-06T00:31:21;15.10;99.90
11087;DHT22;5597;47.588;9.642;2023-08-06T00:33:47;15.10;99.90
11087;DHT22;5597;47.588;9.642;2023-08-06T00:36:13;15.10;99.90
11087;DHT22;5597;47.588;9.642;2023-08-06T00:38:38;15.10;99.90
11087;DHT22;5597;47.588;9.642;2023-08-06T00:41:04;15.10;99.90
11087;DHT22;5597;47.588;9.642;2023-08-06T00:43:30;15.10;99.90
11087;DHT22;5597;47.588;9.642;2023-08-06T00:45:55;15.10;99.90
11087;DHT22;5597;47.588;9.642;2023-08-06T00:48:21;15.10;99.90
11087;DHT22;5597;47.588;9.642;2023-08-06T00:50:47;15.10;99.90
11087;DHT22;5597;47.588;9.642;2023-08-06T00:53:13;15.00;99.90
11087;DHT22;5597;47.588;9.642;2023-08-06T00:55:39;15.00;99.90
11087;DHT22;5597;47.588;9.642;2023-08-06T00:58:05;15.00;99.90
11087;DHT22;5597;47.588;9.642;2023-08-06T01:00:31;15.10;99.90
11087;DHT22;5597;47.588;9.642;2023-08-06T01:02:57;15.00;99.90
11087;DHT22;5597;47.588;9.642;2023-08-06T01:05:23;15.00;99.90
11087;DHT22;5597;47.588;9.642;2023-08-06T01:13:27;15.00;99.90
11087;DHT22;5597;47.588;9.642;2023-08-06T01:15:55;15.00;99.90
11087;DHT22;5597;47.588;9.642;2023-08-06T01:18:23;15.00;99.90
11087;DHT22;5597;47.588;9.642;2023-08-06T01:20:49;15.00;99.90
11087;DHT22;5597;47.588;9.642;2023-08-06T01:23:15;14.90;99.90
11087;DHT22;5597;47.588;9.642;2023-08-06T01:26:13;14.90;99.90
11087;DHT22;5597;47.588;9.642;2023-08-06T01:28:59;14.80;99.90
11087;DHT22;5597;47.588;9.642;2023-08-06T01:31:31;14.70;99.90
11087;DHT22;5597;47.588;9.642;2023-08-06T01:33:58;14.70;99.90
11087;DHT22;5597;47.588;9.642;2023-08-06T01:36:25;14.60;99.90
11087;DHT22;5597;47.588;9.642;2023-08-06T01:38:53;14.60;99.90
11087;DHT22;5597;47.588;9.642;2023-08-06T01:41:18;14.50;99.90
11087;DHT22;5597;47.588;9.642;2023-08-06T01:43:44;14.40;99.90
11087;DHT22;5597;47.588;9.642;2023-08-06T01:46:10;14.40;99.90
11087;DHT22;5597;47.588;9.642;2023-08-06T01:48:36;14.40;99.90
11087;DHT22;5597;47.588;9.642;2023-08-06T01:51:04;14.30;99.90
11087;DHT22;5597;47.588;9.642;2023-08-06T01:53:31;14.30;99.90
11087;DHT22;5597;47.588;9.642;2023-08-06T01:55:57;14.20;99.90
11087;DHT22;5597;47.588;9.642;2023-08-06T01:58:23;14.10;99.90
11087;DHT22;5597;47.588;9.642;2023-08-06T02:00:48;14.10;99.90
11087;DHT22;5597;47.588;9.642;2023-08-06T02:03:14;14.00;99.90
11087;DHT22;5597;47.588;9.642;2023-08-06T02:05:40;14.00;99.90
11087;DHT22;5597;47.588;9.642;2023-08-06T02:08:06;14.00;99.90
11087;DHT22;5597;47.588;9.642;2023-08-06T02:10:32;14.00;99.90
11087;DHT22;5597;47.588;9.642;2023-08-06T02:12:57;14.00;99.90
11087;DHT22;5597;47.588;9.642;2023-08-06T02:15:23;13.90;99.90
11087;DHT22;5597;47.588;9.642;2023-08-06T02:17:49;13.90;99.90
11087;DHT22;5597;47.588;9.642;2023-08-06T02:20:14;13.90;99.90
11087;DHT22;5597;47.588;9.642;2023-08-06T02:22:40;13.90;99.90
11087;DHT22;5597;47.588;9.642;2023-08-06T02:25:06;13.90;99.90
11087;DHT22;5597;47.588;9.642;2023-08-06T02:27:31;13.90;99.90
11087;DHT22;5597;47.588;9.642;2023-08-06T02:29:57;13.90;99.90
11087;DHT22;5597;47.588;9.642;2023-08-06T02:32:23;13.90;99.90
11087;DHT22;5597;47.588;9.642;2023-08-06T02:34:48;13.90;99.90
11087;DHT22;5597;47.588;9.642;2023-08-06T02:37:14;13.90;99.90
11087;DHT22;5597;47.588;9.642;2023-08-06T02:39:40;13.90;99.90
11087;DHT22;5597;47.588;9.642;2023-08-06T02:42:08;13.90;99.90
11087;DHT22;5597;47.588;9.642;2023-08-06T02:44:35;13.90;99.90
11087;DHT22;5597;47.588;9.642;2023-08-06T02:47:01;13.80;99.90
11087;DHT22;5597;47.588;9.642;2023-08-06T02:49:27;13.80;99.90
11087;DHT22;5597;47.588;9.642;2023-08-06T02:51:52;13.80;99.90
11087;DHT22;5597;47.588;9.642;2023-08-06T02:54:19;13.80;99.90
11087;DHT22;5597;47.588;9.642;2023-08-06T02:56:45;13.80;99.90
11087;DHT22;5597;47.588;9.642;2023-08-06T02:59:12;13.80;99.90
11087;DHT22;5597;47.588;9.642;2023-08-06T03:01:38;13.80;99.90
11087;DHT22;5597;47.588;9.642;2023-08-06T03:04:04;13.80;99.90
11087;DHT22;5597;47.588;9.642;2023-08-06T03:06:29;13.80;99.90
11087;DHT22;5597;47.588;9.642;2023-08-06T03:08:55;13.90;99.90
11087;DHT22;5597;47.588;9.642;2023-08-06T03:11:21;13.90;99.90
11087;DHT22;5597;47.588;9.642;2023-08-06T03:13:47;13.90;99.90
11087;DHT22;5597;47.588;9.642;2023-08-06T03:16:13;13.90;99.90
11087;DHT22;5597;47.588;9.642;2023-08-06T03:18:39;13.90;99.90
11087;DHT22;5597;47.588;9.642;2023-08-06T03:21:04;13.90;99.90
11087;DHT22;5597;47.588;9.642;2023-08-06T03:23:30;13.90;99.90
11087;DHT22;5597;47.588;9.642;2023-08-06T03:25:56;13.90;99.90
11087;DHT22;5597;47.588;9.642;2023-08-06T03:28:21;13.90;99.90
11087;DHT22;5597;47.588;9.642;2023-08-06T03:30:48;13.90;99.90
11087;DHT22;5597;47.588;9.642;2023-08-06T03:33:14;13.90;99.90
11087;DHT22;5597;47.588;9.642;2023-08-06T03:35:39;13.90;99.90
11087;DHT22;5597;47.588;9.642;2023-08-06T03:38:05;13.90;99.90
11087;DHT22;5597;47.588;9.642;2023-08-06T03:40:31;13.80;99.90
11087;DHT22;5597;47.588;9.642;2023-08-06T03:42:56;13.80;99.90
11087;DHT22;5597;47.588;9.642;2023-08-06T03:45:22;13.80;99.90
11087;DHT22;5597;47.588;9.642;2023-08-06T03:47:48;13.80;99.90
11087;DHT22;5597;47.588;9.642;2023-08-06T03:50:13;13.80;99.90
11087;DHT22;5597;47.588;9.642;2023-08-06T03:52:39;13.80;99.90
11087;DHT22;5597;47.588;9.642;2023-08-06T03:55:05;13.90;99.90
11087;DHT22;5597;47.588;9.642;2023-08-06T03:57:30;13.90;99.90
11087;DHT22;5597;47.588;9.642;2023-08-06T03:59:56;13.90;99.90
11087;DHT22;5597;47.588;9.642;2023-08-06T04:02:22;13.80;99.90
11087;DHT22;5597;47.588;9.642;2023-08-06T04:04:48;13.80;99.90
11087;DHT22;5597;47.588;9.642;2023-08-06T04:07:14;13.70;99.90
11087;DHT22;5597;47.588;9.642;2023-08-06T04:10:02;13.60;99.90
11087;DHT22;5597;47.588;9.642;2023-08-06T04:12:29;13.60;99.90
11087;DHT22;5597;47.588;9.642;2023-08-06T04:14:57;13.50;99.90
11087;DHT22;5597;47.588;9.642;2023-08-06T04:17:22;13.50;99.90
11087;DHT22;5597;47.588;9.642;2023-08-06T04:19:53;13.50;99.90
11087;DHT22;5597;47.588;9.642;2023-08-06T04:22:20;13.50;99.90
11087;DHT22;5597;47.588;9.642;2023-08-06T04:24:47;13.50;99.90
11087;DHT22;5597;47.588;9.642;2023-08-06T04:27:14;13.50;99.90
11087;DHT22;5597;47.588;9.642;2023-08-06T04:29:40;13.60;99.90
11087;DHT22;5597;47.588;9.642;2023-08-06T04:32:07;13.60;99.90
11087;DHT22;5597;47.588;9.642;2023-08-06T04:34:33;13.70;99.90
11087;DHT22;5597;47.588;9.642;2023-08-06T04:36:59;13.80;99.90
11087;DHT22;5597;47.588;9.642;2023-08-06T04:39:26;14.00;99.90
11087;DHT22;5597;47.588;9.642;2023-08-06T04:41:51;14.10;99.90
11087;DHT22;5597;47.588;9.642;2023-08-06T04:44:17;14.20;99.90
11087;DHT22;5597;47.588;9.642;2023-08-06T04:46:42;14.30;99.90
11087;DHT22;5597;47.588;9.642;2023-08-06T04:49:08;14.40;99.90
11087;DHT22;5597;47.588;9.642;2023-08-06T04:51:34;14.50;99.90
11087;DHT22;5597;47.588;9.642;2023-08-06T04:54:00;14.60;99.90
11087;DHT22;5597;47.588;9.642;2023-08-06T04:56:25;14.60;99.90
11087;DHT22;5597;47.588;9.642;2023-08-06T04:58:51;14.70;99.90
11087;DHT22;5597;47.588;9.642;2023-08-06T05:01:17;14.70;99.90
11087;DHT22;5597;47.588;9.642;2023-08-06T05:03:42;14.80;99.90
11087;DHT22;5597;47.588;9.642;2023-08-06T05:06:08;14.80;99.90
11087;DHT22;5597;47.588;9.642;2023-08-06T05:08:34;14.80;99.90
11087;DHT22;5597;47.588;9.642;2023-08-06T05:10:59;14.80;99.90
11087;DHT22;5597;47.588;9.642;2023-08-06T05:13:25;14.90;99.90
11087;DHT22;5597;47.588;9.642;2023-08-06T05:15:53;14.90;99.90
11087;DHT22;5597;47.588;9.642;2023-08-06T05:18:22;14.90;99.90
11087;DHT22;5597;47.588;9.642;2023-08-06T05:20:48;14.90;99.90
11087;DHT22;5597;47.588;9.642;2023-08-06T05:23:13;14.90;99.90
11087;DHT22;5597;47.588;9.642;2023-08-06T05:25:39;15.00;99.90
11087;DHT22;5597;47.588;9.642;2023-08-06T05:28:05;15.00;99.90
11087;DHT22;5597;47.588;9.642;2023-08-06T05:30:30;15.00;99.90
11087;DHT22;5597;47.588;9.642;2023-08-06T05:32:56;15.00;99.90
11087;DHT22;5597;47.588;9.642;2023-08-06T05:35:22;15.10;99.90
11087;DHT22;5597;47.588;9.642;2023-08-06T05:37:49;15.00;99.90
11087;DHT22;5597;47.588;9.642;2023-08-06T05:40:15;14.90;99.90
11087;DHT22;5597;47.588;9.642;2023-08-06T05:42:41;14.80;99.90
11087;DHT22;5597;47.588;9.642;2023-08-06T05:45:07;14.60;99.90
11087;DHT22;5597;47.588;9.642;2023-08-06T05:47:33;14.50;99.90
11087;DHT22;5597;47.588;9.642;2023-08-06T05:49:58;14.30;99.90
11087;DHT22;5597;47.588;9.642;2023-08-06T05:52:24;14.30;99.90
11087;DHT22;5597;47.588;9.642;2023-08-06T05:54:50;14.20;99.90
11087;DHT22;5597;47.588;9.642;2023-08-06T05:57:16;14.10;99.90
11087;DHT22;5597;47.588;9.642;2023-08-06T05:59:42;14.00;99.90
11087;DHT22;5597;47.588;9.642;2023-08-06T06:02:08;14.00;99.90
11087;DHT22;5597;47.588;9.642;2023-08-06T06:04:33;14.00;99.90
11087;DHT22;5597;47.588;9.642;2023-08-06T06:06:59;14.00;99.90
11087;DHT22;5597;47.588;9.642;2023-08-06T06:09:25;14.00;99.90
11087;DHT22;5597;47.588;9.642;2023-08-06T06:11:51;14.00;99.90
11087;DHT22;5597;47.588;9.642;2023-08-06T06:14:17;14.00;99.90
11087;DHT22;5597;47.588;9.642;2023-08-06T06:16:45;14.00;99.90
11087;DHT22;5597;47.588;9.642;2023-08-06T06:19:12;14.00;99.90
11087;DHT22;5597;47.588;9.642;2023-08-06T06:21:38;14.00;99.90
11087;DHT22;5597;47.588;9.642;2023-08-06T06:24:04;14.00;99.90
11087;DHT22;5597;47.588;9.642;2023-08-06T06:26:31;14.10;99.90
11087;DHT22;5597;47.588;9.642;2023-08-06T06:28:57;14.10;99.90
11087;DHT22;5597;47.588;9.642;2023-08-06T06:31:23;14.10;99.90
11087;DHT22;5597;47.588;9.642;2023-08-06T06:33:49;14.10;99.90
11087;DHT22;5597;47.588;9.642;2023-08-06T06:36:15;14.10;99.90
11087;DHT22;5597;47.588;9.642;2023-08-06T06:38:40;14.20;99.90
11087;DHT22;5597;47.588;9.642;2023-08-06T06:41:06;14.20;99.90
11087;DHT22;5597;47.588;9.642;2023-08-06T06:43:32;14.20;99.90
11087;DHT22;5597;47.588;9.642;2023-08-06T06:45:59;14.30;99.90
11087;DHT22;5597;47.588;9.642;2023-08-06T06:48:26;14.30;99.90
11087;DHT22;5597;47.588;9.642;2023-08-06T06:50:52;14.40;99.90
11087;DHT22;5597;47.588;9.642;2023-08-06T06:53:18;14.40;99.90
11087;DHT22;5597;47.588;9.642;2023-08-06T06:55:43;14.50;99.90
11087;DHT22;5597;47.588;9.642;2023-08-06T06:58:09;14.60;99.90
11087;DHT22;5597;47.588;9.642;2023-08-06T07:00:36;14.60;99.90
11087;DHT22;5597;47.588;9.642;2023-08-06T07:03:03;14.60;99.90
11087;DHT22;5597;47.588;9.642;2023-08-06T07:05:28;14.80;99.90
11087;DHT22;5597;47.588;9.642;2023-08-06T07:07:54;14.80;99.90
11087;DHT22;5597;47.588;9.642;2023-08-06T07:10:20;14.90;99.90
11087;DHT22;5597;47.588;9.642;2023-08-06T07:12:45;14.90;99.90
11087;DHT22;5597;47.588;9.642;2023-08-06T07:15:11;14.90;99.90
11087;DHT22;5597;47.588;9.642;2023-08-06T07:17:37;14.90;99.90
11087;DHT22;5597;47.588;9.642;2023-08-06T07:20:03;14.90;99.90
11087;DHT22;5597;47.588;9.642;2023-08-06T07:22:29;15.00;99.90
11087;DHT22;5597;47.588;9.642;2023-08-06T07:24:55;15.20;99.90
11087;DHT22;5597;47.588;9.642;2023-08-06T07:27:21;15.40;99.90
11087;DHT22;5597;47.588;9.642;2023-08-06T07:29:46;15.60;99.90
11087;DHT22;5597;47.588;9.642;2023-08-06T07:32:13;15.70;99.90
11087;DHT22;5597;47.588;9.642;2023-08-06T07:34:39;15.80;99.90
11087;DHT22;5597;47.588;9.642;2023-08-06T07:37:05;15.90;99.90
11087;DHT22;5597;47.588;9.642;2023-08-06T07:39:31;15.90;99.90
11087;DHT22;5597;47.588;9.642;2023-08-06T07:41:56;16.00;99.90
11087;DHT22;5597;47.588;9.642;2023-08-06T07:44:22;16.00;99.90
11087;DHT22;5597;47.588;9.642;2023-08-06T07:46:49;16.00;99.90
11087;DHT22;5597;47.588;9.642;2023-08-06T07:49:15;16.10;99.90
11087;DHT22;5597;47.588;9.642;2023-08-06T07:51:40;16.10;99.90
11087;DHT22;5597;47.588;9.642;2023-08-06T07:54:06;16.10;99.90
11087;DHT22;5597;47.588;9.642;2023-08-06T07:56:32;16.00;99.90
11087;DHT22;5597;47.588;9.642;2023-08-06T07:58:58;16.00;99.90
11087;DHT22;5597;47.588;9.642;2023-08-06T08:01:23;16.00;99.90
11087;DHT22;5597;47.588;9.642;2023-08-06T08:03:49;15.90;99.90
11087;DHT22;5597;47.588;9.642;2023-08-06T08:06:15;15.90;99.90
11087;DHT22;5597;47.588;9.642;2023-08-06T08:08:40;15.90;99.90
11087;DHT22;5597;47.588;9.642;2023-08-06T08:11:06;15.90;99.90
11087;DHT22;5597;47.588;9.642;2023-08-06T08:13:32;15.90;99.90
11087;DHT22;5597;47.588;9.642;2023-08-06T08:15:58;15.80;99.90
11087;DHT22;5597;47.588;9.642;2023-08-06T08:18:27;15.80;99.90
11087;DHT22;5597;47.588;9.642;2023-08-06T08:20:53;15.70;99.90
11087;DHT22;5597;47.588;9.642;2023-08-06T08:23:19;15.70;99.90
11087;DHT22;5597;47.588;9.642;2023-08-06T08:25:44;15.70;99.90
11087;DHT22;5597;47.588;9.642;2023-08-06T08:28:10;15.60;99.90
11087;DHT22;5597;47.588;9.642;2023-08-06T08:30:36;15.60;99.90
11087;DHT22;5597;47.588;9.642;2023-08-06T08:33:02;15.60;99.90
11087;DHT22;5597;47.588;9.642;2023-08-06T08:35:27;15.50;99.90
11087;DHT22;5597;47.588;9.642;2023-08-06T08:37:53;15.40;99.90
11087;DHT22;5597;47.588;9.642;2023-08-06T08:40:20;15.30;99.90
11087;DHT22;5597;47.588;9.642;2023-08-06T08:42:47;15.30;99.90
11087;DHT22;5597;47.588;9.642;2023-08-06T08:45:14;15.20;99.90
11087;DHT22;5597;47.588;9.642;2023-08-06T08:47:41;15.00;99.90
11087;DHT22;5597;47.588;9.642;2023-08-06T08:50:08;14.80;99.90
11087;DHT22;5597;47.588;9.642;2023-08-06T08:52:36;14.80;99.90
11087;DHT22;5597;47.588;9.642;2023-08-06T08:55:02;14.70;99.90
11087;DHT22;5597;47.588;9.642;2023-08-06T08:57:28;14.70;99.90
11087;DHT22;5597;47.588;9.642;2023-08-06T08:59:53;14.80;99.90
11087;DHT22;5597;47.588;9.642;2023-08-06T09:02:21;14.80;99.90
11087;DHT22;5597;47.588;9.642;2023-08-06T09:04:48;14.80;99.90
11087;DHT22;5597;47.588;9.642;2023-08-06T09:07:18;14.80;99.90
11087;DHT22;5597;47.588;9.642;2023-08-06T09:09:47;14.80;99.90
11087;DHT22;5597;47.588;9.642;2023-08-06T09:12:15;14.70;99.90
11087;DHT22;5597;47.588;9.642;2023-08-06T09:14:41;14.70;99.90
11087;DHT22;5597;47.588;9.642;2023-08-06T09:17:09;14.60;99.90
11087;DHT22;5597;47.588;9.642;2023-08-06T09:19:36;14.60;99.90
11087;DHT22;5597;47.588;9.642;2023-08-06T09:22:02;14.60;99.90
11087;DHT22;5597;47.588;9.642;2023-08-06T09:24:28;14.60;99.90
11087;DHT22;5597;47.588;9.642;2023-08-06T09:26:54;14.60;99.90
11087;DHT22;5597;47.588;9.642;2023-08-06T09:29:20;14.60;99.90
11087;DHT22;5597;47.588;9.642;2023-08-06T09:31:50;14.60;99.90
11087;DHT22;5597;47.588;9.642;2023-08-06T09:34:21;14.60;99.90
11087;DHT22;5597;47.588;9.642;2023-08-06T09:39:28;14.60;99.90
11087;DHT22;5597;47.588;9.642;2023-08-06T09:41:58;14.50;99.90
11087;DHT22;5597;47.588;9.642;2023-08-06T09:44:26;14.50;99.90
11087;DHT22;5597;47.588;9.642;2023-08-06T09:46:53;14.50;99.90
11087;DHT22;5597;47.588;9.642;2023-08-06T09:49:20;14.50;99.90
11087;DHT22;5597;47.588;9.642;2023-08-06T09:51:50;14.40;99.90
11087;DHT22;5597;47.588;9.642;2023-08-06T09:54:17;14.40;99.90
11087;DHT22;5597;47.588;9.642;2023-08-06T09:56:45;14.40;99.90
11087;DHT22;5597;47.588;9.642;2023-08-06T09:59:10;14.40;99.90
11087;DHT22;5597;47.588;9.642;2023-08-06T10:01:39;14.40;99.90
11087;DHT22;5597;47.588;9.642;2023-08-06T10:04:05;14.40;99.90
11087;DHT22;5597;47.588;9.642;2023-08-06T10:06:34;14.50;99.90
11087;DHT22;5597;47.588;9.642;2023-08-06T10:09:06;14.50;99.90
11087;DHT22;5597;47.588;9.642;2023-08-06T10:11:33;14.50;99.90
11087;DHT22;5597;47.588;9.642;2023-08-06T10:16:57;14.70;99.90
11087;DHT22;5597;47.588;9.642;2023-08-06T10:19:26;14.70;99.90
11087;DHT22;5597;47.588;9.642;2023-08-06T10:22:28;14.90;99.90
11087;DHT22;5597;47.588;9.642;2023-08-06T10:24:55;14.90;99.90
11087;DHT22;5597;47.588;9.642;2023-08-06T10:27:35;14.90;99.90
11087;DHT22;5597;47.588;9.642;2023-08-06T10:30:27;14.90;99.90
11087;DHT22;5597;47.588;9.642;2023-08-06T10:32:58;14.90;99.90
11087;DHT22;5597;47.588;9.642;2023-08-06T10:43:38;15.20;99.90
11087;DHT22;5597;47.588;9.642;2023-08-06T10:46:10;15.30;99.90
11087;DHT22;5597;47.588;9.642;2023-08-06T10:48:41;15.30;99.90
11087;DHT22;5597;47.588;9.642;2023-08-06T10:51:11;15.30;99.90
11087;DHT22;5597;47.588;9.642;2023-08-06T10:53:37;15.30;99.90
11087;DHT22;5597;47.588;9.642;2023-08-06T10:56:23;15.30;99.90
11087;DHT22;5597;47.588;9.642;2023-08-06T10:58:52;15.30;99.90
11087;DHT22;5597;47.588;9.642;2023-08-06T11:01:19;15.30;99.90
11087;DHT22;5597;47.588;9.642;2023-08-06T11:03:45;15.40;99.90
11087;DHT22;5597;47.588;9.642;2023-08-06T11:06:20;15.50;99.90
11087;DHT22;5597;47.588;9.642;2023-08-06T11:08:51;15.50;99.90
11087;DHT22;5597;47.588;9.642;2023-08-06T11:11:18;15.60;99.90
11087;DHT22;5597;47.588;9.642;2023-08-06T11:13:46;15.70;99.90
11087;DHT22;5597;47.588;9.642;2023-08-06T11:16:13;15.70;99.90
11087;DHT22;5597;47.588;9.642;2023-08-06T11:18:40;15.70;99.90
11087;DHT22;5597;47.588;9.642;2023-08-06T11:21:08;15.60;99.90
11087;DHT22;5597;47.588;9.642;2023-08-06T11:23:34;15.50;99.90
11087;DHT22;5597;47.588;9.642;2023-08-06T11:26:00;15.40;99.90
11087;DHT22;5597;47.588;9.642;2023-08-06T11:28:26;15.30;99.90
11087;DHT22;5597;47.588;9.642;2023-08-06T11:30:53;15.30;99.90
11087;DHT22;5597;47.588;9.642;2023-08-06T11:33:24;15.20;99.90
11087;DHT22;5597;47.588;9.642;2023-08-06T11:35:51;15.20;99.90
11087;DHT22;5597;47.588;9.642;2023-08-06T11:38:17;15.20;99.90
11087;DHT22;5597;47.588;9.642;2023-08-06T11:40:47;15.20;99.90
11087;DHT22;5597;47.588;9.642;2023-08-06T11:43:13;15.20;99.90
11087;DHT22;5597;47.588;9.642;2023-08-06T11:45:39;15.30;99.90
11087;DHT22;5597;47.588;9.642;2023-08-06T11:48:06;15.40;99.90
11087;DHT22;5597;47.588;9.642;2023-08-06T11:50:36;15.50;99.90
11087;DHT22;5597;47.588;9.642;2023-08-06T11:53:03;15.60;99.90
11087;DHT22;5597;47.588;9.642;2023-08-06T11:55:29;15.60;99.90
11087;DHT22;5597;47.588;9.642;2023-08-06T11:57:55;15.60;99.90
11087;DHT22;5597;47.588;9.642;2023-08-06T12:00:24;15.70;99.90
11087;DHT22;5597;47.588;9.642;2023-08-06T12:02:50;15.80;99.90
11087;DHT22;5597;47.588;9.642;2023-08-06T12:05:28;15.90;99.90
11087;DHT22;5597;47.588;9.642;2023-08-06T12:07:58;15.90;99.90
11087;DHT22;5597;47.588;9.642;2023-08-06T12:10:26;16.00;99.90
11087;DHT22;5597;47.588;9.642;2023-08-06T12:12:52;16.00;99.90
11087;DHT22;5597;47.588;9.642;2023-08-06T12:15:18;16.00;99.90
11087;DHT22;5597;47.588;9.642;2023-08-06T12:17:43;16.00;99.90
11087;DHT22;5597;47.588;9.642;2023-08-06T12:20:10;16.00;99.90
11087;DHT22;5597;47.588;9.642;2023-08-06T12:22:36;16.00;99.90
11087;DHT22;5597;47.588;9.642;2023-08-06T12:25:11;16.00;99.90
11087;DHT22;5597;47.588;9.642;2023-08-06T12:27:43;16.00;99.90
11087;DHT22;5597;47.588;9.642;2023-08-06T12:30:10;16.10;99.90
11087;DHT22;5597;47.588;9.642;2023-08-06T12:32:37;16.10;99.90
11087;DHT22;5597;47.588;9.642;2023-08-06T12:35:06;16.10;99.90
11087;DHT22;5597;47.588;9.642;2023-08-06T12:37:33;16.10;99.90
11087;DHT22;5597;47.588;9.642;2023-08-06T12:39:58;16.20;99.90
11087;DHT22;5597;47.588;9.642;2023-08-06T12:42:24;16.20;99.90
11087;DHT22;5597;47.588;9.642;2023-08-06T12:44:50;16.30;99.90
11087;DHT22;5597;47.588;9.642;2023-08-06T12:47:17;16.30;99.90
11087;DHT22;5597;47.588;9.642;2023-08-06T12:49:42;16.40;99.90
11087;DHT22;5597;47.588;9.642;2023-08-06T12:52:08;16.30;99.90
11087;DHT22;5597;47.588;9.642;2023-08-06T12:54:35;16.30;99.90
11087;DHT22;5597;47.588;9.642;2023-08-06T12:57:04;16.20;99.90
11087;DHT22;5597;47.588;9.642;2023-08-06T12:59:30;16.20;99.90
11087;DHT22;5597;47.588;9.642;2023-08-06T13:01:56;16.10;99.90
11087;DHT22;5597;47.588;9.642;2023-08-06T13:04:22;16.00;99.90
11087;DHT22;5597;47.588;9.642;2023-08-06T13:06:47;16.00;99.90
11087;DHT22;5597;47.588;9.642;2023-08-06T13:09:13;15.90;99.90
11087;DHT22;5597;47.588;9.642;2023-08-06T13:11:40;15.90;99.90
11087;DHT22;5597;47.588;9.642;2023-08-06T13:14:11;15.90;99.90
11087;DHT22;5597;47.588;9.642;2023-08-06T13:16:39;15.90;99.90
11087;DHT22;5597;47.588;9.642;2023-08-06T13:19:06;15.90;99.90
11087;DHT22;5597;47.588;9.642;2023-08-06T13:21:34;15.90;99.90
11087;DHT22;5597;47.588;9.642;2023-08-06T13:24:03;15.90;99.90
11087;DHT22;5597;47.588;9.642;2023-08-06T13:26:29;15.90;99.90
11087;DHT22;5597;47.588;9.642;2023-08-06T13:28:57;15.90;99.90
11087;DHT22;5597;47.588;9.642;2023-08-06T13:31:22;15.90;99.90
11087;DHT22;5597;47.588;9.642;2023-08-06T13:33:48;15.80;99.90
11087;DHT22;5597;47.588;9.642;2023-08-06T13:36:18;15.80;99.90
11087;DHT22;5597;47.588;9.642;2023-08-06T13:38:44;15.80;99.90
11087;DHT22;5597;47.588;9.642;2023-08-06T13:41:09;15.70;99.90
11087;DHT22;5597;47.588;9.642;2023-08-06T13:43:35;15.70;99.90
11087;DHT22;5597;47.588;9.642;2023-08-06T13:46:00;15.70;99.90
11087;DHT22;5597;47.588;9.642;2023-08-06T13:48:26;15.70;99.90
11087;DHT22;5597;47.588;9.642;2023-08-06T13:50:52;15.80;99.90
11087;DHT22;5597;47.588;9.642;2023-08-06T13:53:18;15.80;99.90
11087;DHT22;5597;47.588;9.642;2023-08-06T13:55:43;15.90;99.90
11087;DHT22;5597;47.588;9.642;2023-08-06T13:58:11;16.00;99.90
11087;DHT22;5597;47.588;9.642;2023-08-06T14:00:37;16.00;99.90
11087;DHT22;5597;47.588;9.642;2023-08-06T14:03:03;16.00;99.90
11087;DHT22;5597;47.588;9.642;2023-08-06T14:05:29;16.00;99.90
11087;DHT22;5597;47.588;9.642;2023-08-06T14:07:54;16.00;99.90
11087;DHT22;5597;47.588;9.642;2023-08-06T14:10:20;16.00;99.90
11087;DHT22;5597;47.588;9.642;2023-08-06T14:12:46;16.00;99.90
11087;DHT22;5597;47.588;9.642;2023-08-06T14:15:12;16.00;99.90
11087;DHT22;5597;47.588;9.642;2023-08-06T14:17:37;16.00;99.90
11087;DHT22;5597;47.588;9.642;2023-08-06T14:20:04;15.90;99.90
11087;DHT22;5597;47.588;9.642;2023-08-06T14:22:32;15.90;99.90
11087;DHT22;5597;47.588;9.642;2023-08-06T14:24:58;15.90;99.90
11087;DHT22;5597;47.588;9.642;2023-08-06T14:27:25;15.90;99.90
11087;DHT22;5597;47.588;9.642;2023-08-06T14:29:51;16.00;99.90
11087;DHT22;5597;47.588;9.642;2023-08-06T14:32:16;16.00;99.90
11087;DHT22;5597;47.588;9.642;2023-08-06T14:34:44;15.90;99.90
11087;DHT22;5597;47.588;9.642;2023-08-06T14:37:10;15.90;99.90
11087;DHT22;5597;47.588;9.642;2023-08-06T14:39:36;15.90;99.90
11087;DHT22;5597;47.588;9.642;2023-08-06T14:42:03;15.90;99.90
11087;DHT22;5597;47.588;9.642;2023-08-06T14:44:28;15.80;99.90
11087;DHT22;5597;47.588;9.642;2023-08-06T14:46:54;15.80;99.90
11087;DHT22;5597;47.588;9.642;2023-08-06T14:49:19;15.80;99.90
11087;DHT22;5597;47.588;9.642;2023-08-06T14:51:45;15.80;99.90
11087;DHT22;5597;47.588;9.642;2023-08-06T14:54:11;15.80;99.90
11087;DHT22;5597;47.588;9.642;2023-08-06T14:56:37;15.80;99.90
11087;DHT22;5597;47.588;9.642;2023-08-06T14:59:02;15.80;99.90
11087;DHT22;5597;47.588;9.642;2023-08-06T15:01:28;15.80;99.90
11087;DHT22;5597;47.588;9.642;2023-08-06T15:03:54;16.00;99.90
11087;DHT22;5597;47.588;9.642;2023-08-06T15:06:19;16.20;99.90
11087;DHT22;5597;47.588;9.642;2023-08-06T15:08:45;16.40;99.90
11087;DHT22;5597;47.588;9.642;2023-08-06T15:11:13;16.70;99.90
11087;DHT22;5597;47.588;9.642;2023-08-06T15:13:39;17.00;99.90
11087;DHT22;5597;47.588;9.642;2023-08-06T15:16:04;17.20;99.90
11087;DHT22;5597;47.588;9.642;2023-08-06T15:18:30;17.40;99.90
11087;DHT22;5597;47.588;9.642;2023-08-06T15:20:56;17.70;99.90
11087;DHT22;5597;47.588;9.642;2023-08-06T15:23:23;18.10;99.90
11087;DHT22;5597;47.588;9.642;2023-08-06T15:25:49;18.40;99.90
11087;DHT22;5597;47.588;9.642;2023-08-06T15:28:14;18.60;99.90
11087;DHT22;5597;47.588;9.642;2023-08-06T15:30:40;18.80;99.90
11087;DHT22;5597;47.588;9.642;2023-08-06T15:33:10;18.80;99.90
11087;DHT22;5597;47.588;9.642;2023-08-06T15:35:36;18.70;99.90
11087;DHT22;5597;47.588;9.642;2023-08-06T15:38:01;18.50;99.90
11087;DHT22;5597;47.588;9.642;2023-08-06T15:40:27;18.40;99.90
11087;DHT22;5597;47.588;9.642;2023-08-06T15:42:53;18.20;99.90
11087;DHT22;5597;47.588;9.642;2023-08-06T15:45:18;18.20;99.90
11087;DHT22;5597;47.588;9.642;2023-08-06T15:47:44;18.40;99.90
11087;DHT22;5597;47.588;9.642;2023-08-06T15:50:09;18.60;99.90
11087;DHT22;5597;47.588;9.642;2023-08-06T15:52:35;18.70;99.90
11087;DHT22;5597;47.588;9.642;2023-08-06T15:55:05;18.90;99.90
11087;DHT22;5597;47.588;9.642;2023-08-06T15:57:34;19.00;99.90
11087;DHT22;5597;47.588;9.642;2023-08-06T16:00:01;19.00;99.90
11087;DHT22;5597;47.588;9.642;2023-08-06T16:02:27;18.80;99.90